Sabine, Louisiana
Current Conditions -  °F | °C
As of 8:56 AM on Tuesday 21 Oct 2014 (Local Time) from KAQV Reporting Station
Clear Clear  
Wind Chill: 64°   Ceiling: Unl
Heat Index: 64°   Visibility: 10mi
Dew Point: 55°   Wind: 0mph
Humidity: 72%   Direction: NA
Pressure: 30.09"   Gusts: NA
Location:  31.6044°N, 93.4433°W
Report Text: KAQV 211356Z AUTO 00000KT 10SM CLR 18/13 A3009 RMK AO2 SLP190 T01780128
Loading
Personal Weather Stations






























Interactive Weather Map
Tropical Storm Tracking
New forecast layout! Learn more

10-Day Weather Forecast

Advertisements
Track Severe Weather on mobile